sensor_id;sensor_type;location;lat;lon;timestamp;temperature;humidity
5280;DHT22;2663;53.588;10.010;2023-03-14T00:00:19;12.70;99.90
5280;DHT22;2663;53.588;10.010;2023-03-14T00:02:45;12.70;99.90
5280;DHT22;2663;53.588;10.010;2023-03-14T00:05:12;12.70;99.90
5280;DHT22;2663;53.588;10.010;2023-03-14T00:07:39;12.70;99.90
5280;DHT22;2663;53.588;10.010;2023-03-14T00:10:12;12.70;99.90
5280;DHT22;2663;53.588;10.010;2023-03-14T00:12:41;12.70;99.90
5280;DHT22;2663;53.588;10.010;2023-03-14T00:15:09;12.60;99.90
5280;DHT22;2663;53.588;10.010;2023-03-14T00:17:36;12.70;99.90
5280;DHT22;2663;53.588;10.010;2023-03-14T00:20:05;12.60;99.90
5280;DHT22;2663;53.588;10.010;2023-03-14T00:22:35;12.50;99.90
5280;DHT22;2663;53.588;10.010;2023-03-14T00:25:02;12.50;99.90
5280;DHT22;2663;53.588;10.010;2023-03-14T00:27:29;12.50;99.90
5280;DHT22;2663;53.588;10.010;2023-03-14T00:29:56;12.40;99.90
5280;DHT22;2663;53.588;10.010;2023-03-14T00:32:23;12.40;99.90
5280;DHT22;2663;53.588;10.010;2023-03-14T00:34:50;12.40;99.90
5280;DHT22;2663;53.588;10.010;2023-03-14T00:37:16;12.40;99.90
5280;DHT22;2663;53.588;10.010;2023-03-14T00:39:43;12.40;99.90
5280;DHT22;2663;53.588;10.010;2023-03-14T00:42:10;12.40;99.90
5280;DHT22;2663;53.588;10.010;2023-03-14T00:44:37;12.40;99.90
5280;DHT22;2663;53.588;10.010;2023-03-14T00:47:03;12.40;99.90
5280;DHT22;2663;53.588;10.010;2023-03-14T00:49:30;12.50;99.90
5280;DHT22;2663;53.588;10.010;2023-03-14T00:51:57;12.50;99.90
5280;DHT22;2663;53.588;10.010;2023-03-14T00:54:23;12.50;99.90
5280;DHT22;2663;53.588;10.010;2023-03-14T00:56:50;12.50;99.90
5280;DHT22;2663;53.588;10.010;2023-03-14T00:59:17;12.50;99.90
5280;DHT22;2663;53.588;10.010;2023-03-14T01:01:44;12.60;99.90
5280;DHT22;2663;53.588;10.010;2023-03-14T01:04:10;12.60;99.90
5280;DHT22;2663;53.588;10.010;2023-03-14T01:06:37;12.60;99.90
5280;DHT22;2663;53.588;10.010;2023-03-14T01:09:05;12.60;99.90
5280;DHT22;2663;53.588;10.010;2023-03-14T01:11:34;12.60;99.90
5280;DHT22;2663;53.588;10.010;2023-03-14T01:14:02;12.70;99.90
5280;DHT22;2663;53.588;10.010;2023-03-14T01:16:31;12.60;99.90
5280;DHT22;2663;53.588;10.010;2023-03-14T01:18:58;12.70;99.90
5280;DHT22;2663;53.588;10.010;2023-03-14T01:21:26;12.70;99.90
5280;DHT22;2663;53.588;10.010;2023-03-14T01:23:56;12.60;99.90
5280;DHT22;2663;53.588;10.010;2023-03-14T01:26:24;12.60;99.90
5280;DHT22;2663;53.588;10.010;2023-03-14T01:28:53;12.60;99.90
5280;DHT22;2663;53.588;10.010;2023-03-14T01:31:20;12.70;99.90
5280;DHT22;2663;53.588;10.010;2023-03-14T01:33:47;12.70;99.90
5280;DHT22;2663;53.588;10.010;2023-03-14T01:36:14;12.70;99.90
5280;DHT22;2663;53.588;10.010;2023-03-14T01:38:41;12.70;99.90
5280;DHT22;2663;53.588;10.010;2023-03-14T01:41:13;12.70;99.90
5280;DHT22;2663;53.588;10.010;2023-03-14T01:43:41;12.70;99.90
5280;DHT22;2663;53.588;10.010;2023-03-14T01:48:59;12.70;99.90
5280;DHT22;2663;53.588;10.010;2023-03-14T01:51:43;12.60;99.90
5280;DHT22;2663;53.588;10.010;2023-03-14T01:54:17;12.70;99.90
5280;DHT22;2663;53.588;10.010;2023-03-14T01:56:48;12.70;99.90
5280;DHT22;2663;53.588;10.010;2023-03-14T01:59:16;12.70;99.90
5280;DHT22;2663;53.588;10.010;2023-03-14T02:01:44;12.70;99.90
5280;DHT22;2663;53.588;10.010;2023-03-14T02:04:13;12.70;99.90
5280;DHT22;2663;53.588;10.010;2023-03-14T02:09:51;12.60;99.90
5280;DHT22;2663;53.588;10.010;2023-03-14T02:12:20;12.60;99.90
5280;DHT22;2663;53.588;10.010;2023-03-14T02:14:47;12.70;99.90
5280;DHT22;2663;53.588;10.010;2023-03-14T02:17:17;12.60;99.90
5280;DHT22;2663;53.588;10.010;2023-03-14T02:22:35;12.60;99.90
5280;DHT22;2663;53.588;10.010;2023-03-14T02:25:18;12.60;99.90
5280;DHT22;2663;53.588;10.010;2023-03-14T02:27:48;12.60;99.90
5280;DHT22;2663;53.588;10.010;2023-03-14T02:30:18;12.60;99.90
5280;DHT22;2663;53.588;10.010;2023-03-14T02:32:51;12.70;99.90
5280;DHT22;2663;53.588;10.010;2023-03-14T02:35:22;12.70;99.90
5280;DHT22;2663;53.588;10.010;2023-03-14T02:40:48;12.60;99.90
5280;DHT22;2663;53.588;10.010;2023-03-14T02:43:15;12.60;99.90
5280;DHT22;2663;53.588;10.010;2023-03-14T02:45:44;12.60;99.90
5280;DHT22;2663;53.588;10.010;2023-03-14T02:48:18;12.60;99.90
5280;DHT22;2663;53.588;10.010;2023-03-14T02:50:47;12.50;99.90
5280;DHT22;2663;53.588;10.010;2023-03-14T02:53:18;12.50;99.90
5280;DHT22;2663;53.588;10.010;2023-03-14T02:55:46;12.50;99.90
5280;DHT22;2663;53.588;10.010;2023-03-14T02:58:14;12.50;99.90
5280;DHT22;2663;53.588;10.010;2023-03-14T03:00:41;12.40;99.90
5280;DHT22;2663;53.588;10.010;2023-03-14T03:03:07;12.40;99.90
5280;DHT22;2663;53.588;10.010;2023-03-14T03:05:34;12.40;99.90
5280;DHT22;2663;53.588;10.010;2023-03-14T03:08:01;12.40;99.90
5280;DHT22;2663;53.588;10.010;2023-03-14T03:10:28;12.30;99.90
5280;DHT22;2663;53.588;10.010;2023-03-14T03:12:54;14.70;99.90
5280;DHT22;2663;53.588;10.010;2023-03-14T03:15:22;12.40;99.90
5280;DHT22;2663;53.588;10.010;2023-03-14T03:17:48;12.50;99.90
5280;DHT22;2663;53.588;10.010;2023-03-14T03:20:15;12.40;99.90
5280;DHT22;2663;53.588;10.010;2023-03-14T03:22:42;12.40;99.90
5280;DHT22;2663;53.588;10.010;2023-03-14T03:25:09;12.50;99.90
5280;DHT22;2663;53.588;10.010;2023-03-14T03:27:37;12.40;99.90
5280;DHT22;2663;53.588;10.010;2023-03-14T03:30:05;12.40;99.90
5280;DHT22;2663;53.588;10.010;2023-03-14T03:32:32;12.40;99.90
5280;DHT22;2663;53.588;10.010;2023-03-14T03:34:59;12.40;99.90
5280;DHT22;2663;53.588;10.010;2023-03-14T03:37:25;12.40;99.90
5280;DHT22;2663;53.588;10.010;2023-03-14T03:39:52;12.40;99.90
5280;DHT22;2663;53.588;10.010;2023-03-14T03:42:19;12.40;99.90
5280;DHT22;2663;53.588;10.010;2023-03-14T03:44:45;12.50;99.90
5280;DHT22;2663;53.588;10.010;2023-03-14T03:47:13;12.50;99.90
5280;DHT22;2663;53.588;10.010;2023-03-14T03:49:40;12.60;99.90
5280;DHT22;2663;53.588;10.010;2023-03-14T03:52:07;12.50;99.90
5280;DHT22;2663;53.588;10.010;2023-03-14T03:54:33;12.40;99.90
5280;DHT22;2663;53.588;10.010;2023-03-14T03:57:00;12.50;99.90
5280;DHT22;2663;53.588;10.010;2023-03-14T03:59:27;12.40;99.90
5280;DHT22;2663;53.588;10.010;2023-03-14T04:01:54;12.40;99.90
5280;DHT22;2663;53.588;10.010;2023-03-14T04:04:20;12.40;99.90
5280;DHT22;2663;53.588;10.010;2023-03-14T04:06:47;12.40;99.90
5280;DHT22;2663;53.588;10.010;2023-03-14T04:09:14;12.40;99.90
5280;DHT22;2663;53.588;10.010;2023-03-14T04:11:41;12.50;99.90
5280;DHT22;2663;53.588;10.010;2023-03-14T04:14:08;12.30;99.90
5280;DHT22;2663;53.588;10.010;2023-03-14T04:16:35;12.30;99.90
5280;DHT22;2663;53.588;10.010;2023-03-14T04:19:02;12.30;99.90
5280;DHT22;2663;53.588;10.010;2023-03-14T04:21:29;12.20;99.90
5280;DHT22;2663;53.588;10.010;2023-03-14T04:23:56;12.20;99.90
5280;DHT22;2663;53.588;10.010;2023-03-14T04:26:22;12.20;99.90
5280;DHT22;2663;53.588;10.010;2023-03-14T04:28:49;12.20;99.90
5280;DHT22;2663;53.588;10.010;2023-03-14T04:31:18;12.20;99.90
5280;DHT22;2663;53.588;10.010;2023-03-14T04:33:45;12.20;99.90
5280;DHT22;2663;53.588;10.010;2023-03-14T04:36:13;12.20;99.90
5280;DHT22;2663;53.588;10.010;2023-03-14T04:38:40;12.20;99.90
5280;DHT22;2663;53.588;10.010;2023-03-14T04:41:07;12.10;99.90
5280;DHT22;2663;53.588;10.010;2023-03-14T04:43:33;12.20;99.90
5280;DHT22;2663;53.588;10.010;2023-03-14T04:46:00;12.20;99.90
5280;DHT22;2663;53.588;10.010;2023-03-14T04:48:27;12.20;99.90
5280;DHT22;2663;53.588;10.010;2023-03-14T04:50:54;12.10;99.90
5280;DHT22;2663;53.588;10.010;2023-03-14T04:53:21;12.10;99.90
5280;DHT22;2663;53.588;10.010;2023-03-14T04:55:52;12.20;99.90
5280;DHT22;2663;53.588;10.010;2023-03-14T04:58:19;12.20;99.90
5280;DHT22;2663;53.588;10.010;2023-03-14T05:00:46;12.20;99.90
5280;DHT22;2663;53.588;10.010;2023-03-14T05:03:17;12.20;99.90
5280;DHT22;2663;53.588;10.010;2023-03-14T05:05:44;12.30;99.90
5280;DHT22;2663;53.588;10.010;2023-03-14T05:08:11;12.30;99.90
5280;DHT22;2663;53.588;10.010;2023-03-14T05:10:38;12.20;99.90
5280;DHT22;2663;53.588;10.010;2023-03-14T05:13:05;12.20;99.90
5280;DHT22;2663;53.588;10.010;2023-03-14T05:15:31;12.30;99.90
5280;DHT22;2663;53.588;10.010;2023-03-14T05:17:58;12.20;99.90
5280;DHT22;2663;53.588;10.010;2023-03-14T05:20:25;12.10;99.90
5280;DHT22;2663;53.588;10.010;2023-03-14T05:22:51;11.90;99.90
5280;DHT22;2663;53.588;10.010;2023-03-14T05:25:18;11.60;99.90
5280;DHT22;2663;53.588;10.010;2023-03-14T05:27:45;11.50;99.90
5280;DHT22;2663;53.588;10.010;2023-03-14T05:30:11;11.30;99.90
5280;DHT22;2663;53.588;10.010;2023-03-14T05:32:38;11.20;99.90
5280;DHT22;2663;53.588;10.010;2023-03-14T05:35:05;11.10;99.90
5280;DHT22;2663;53.588;10.010;2023-03-14T05:37:32;11.10;99.90
5280;DHT22;2663;53.588;10.010;2023-03-14T05:39:59;11.20;99.90
5280;DHT22;2663;53.588;10.010;2023-03-14T05:42:25;11.20;99.90
5280;DHT22;2663;53.588;10.010;2023-03-14T05:44:52;11.20;99.90
5280;DHT22;2663;53.588;10.010;2023-03-14T05:47:18;11.10;99.90
5280;DHT22;2663;53.588;10.010;2023-03-14T05:49:45;11.00;99.90
5280;DHT22;2663;53.588;10.010;2023-03-14T05:52:12;11.00;99.90
5280;DHT22;2663;53.588;10.010;2023-03-14T05:54:38;11.00;99.90
5280;DHT22;2663;53.588;10.010;2023-03-14T05:57:05;10.90;99.90
5280;DHT22;2663;53.588;10.010;2023-03-14T05:59:32;10.90;99.90
5280;DHT22;2663;53.588;10.010;2023-03-14T06:01:58;10.90;99.90
5280;DHT22;2663;53.588;10.010;2023-03-14T06:04:25;10.90;99.90
5280;DHT22;2663;53.588;10.010;2023-03-14T06:06:52;11.00;99.90
5280;DHT22;2663;53.588;10.010;2023-03-14T06:09:19;11.00;99.90
5280;DHT22;2663;53.588;10.010;2023-03-14T06:11:46;11.10;99.90
5280;DHT22;2663;53.588;10.010;2023-03-14T06:14:13;11.10;99.90
5280;DHT22;2663;53.588;10.010;2023-03-14T06:16:39;11.10;99.90
5280;DHT22;2663;53.588;10.010;2023-03-14T06:19:06;11.00;99.90
5280;DHT22;2663;53.588;10.010;2023-03-14T06:21:33;11.10;99.90
5280;DHT22;2663;53.588;10.010;2023-03-14T06:23:59;11.20;99.90
5280;DHT22;2663;53.588;10.010;2023-03-14T06:26:26;11.30;99.90
5280;DHT22;2663;53.588;10.010;2023-03-14T06:28:53;11.10;99.90
5280;DHT22;2663;53.588;10.010;2023-03-14T06:31:20;11.20;99.90
5280;DHT22;2663;53.588;10.010;2023-03-14T06:33:47;11.10;99.90
5280;DHT22;2663;53.588;10.010;2023-03-14T06:36:13;11.10;99.90
5280;DHT22;2663;53.588;10.010;2023-03-14T06:38:40;11.00;99.90
5280;DHT22;2663;53.588;10.010;2023-03-14T06:41:07;11.10;99.90
5280;DHT22;2663;53.588;10.010;2023-03-14T06:43:34;11.20;99.90
5280;DHT22;2663;53.588;10.010;2023-03-14T06:46:01;11.10;99.90
5280;DHT22;2663;53.588;10.010;2023-03-14T06:48:28;11.20;99.90
5280;DHT22;2663;53.588;10.010;2023-03-14T06:50:54;11.10;99.90
5280;DHT22;2663;53.588;10.010;2023-03-14T06:53:21;11.10;99.90
5280;DHT22;2663;53.588;10.010;2023-03-14T06:55:48;11.10;99.90
5280;DHT22;2663;53.588;10.010;2023-03-14T06:58:14;12.00;99.90
5280;DHT22;2663;53.588;10.010;2023-03-14T07:00:41;12.50;99.90
5280;DHT22;2663;53.588;10.010;2023-03-14T07:03:09;11.90;99.90
5280;DHT22;2663;53.588;10.010;2023-03-14T07:05:38;11.50;99.90
5280;DHT22;2663;53.588;10.010;2023-03-14T07:08:08;11.40;99.90
5280;DHT22;2663;53.588;10.010;2023-03-14T07:10:35;11.10;99.90
5280;DHT22;2663;53.588;10.010;2023-03-14T07:13:02;11.10;99.90
5280;DHT22;2663;53.588;10.010;2023-03-14T07:15:28;11.30;99.90
5280;DHT22;2663;53.588;10.010;2023-03-14T07:17:55;11.20;99.90
5280;DHT22;2663;53.588;10.010;2023-03-14T07:20:21;11.20;99.90
5280;DHT22;2663;53.588;10.010;2023-03-14T07:22:49;11.20;99.90
5280;DHT22;2663;53.588;10.010;2023-03-14T07:25:16;11.20;99.90
5280;DHT22;2663;53.588;10.010;2023-03-14T07:27:44;11.10;99.90
5280;DHT22;2663;53.588;10.010;2023-03-14T07:30:12;11.20;99.90
5280;DHT22;2663;53.588;10.010;2023-03-14T07:32:38;11.20;99.90
5280;DHT22;2663;53.588;10.010;2023-03-14T07:35:06;11.20;99.90
5280;DHT22;2663;53.588;10.010;2023-03-14T07:37:33;11.20;99.90
5280;DHT22;2663;53.588;10.010;2023-03-14T07:39:59;11.00;99.90
5280;DHT22;2663;53.588;10.010;2023-03-14T07:42:26;8.70;99.90
5280;DHT22;2663;53.588;10.010;2023-03-14T07:44:53;11.20;99.90
5280;DHT22;2663;53.588;10.010;2023-03-14T07:47:19;11.10;99.90
5280;DHT22;2663;53.588;10.010;2023-03-14T07:49:46;11.00;99.90
5280;DHT22;2663;53.588;10.010;2023-03-14T07:52:12;11.00;99.90
5280;DHT22;2663;53.588;10.010;2023-03-14T07:54:39;11.00;99.90
5280;DHT22;2663;53.588;10.010;2023-03-14T07:57:06;11.00;99.90
5280;DHT22;2663;53.588;10.010;2023-03-14T07:59:32;11.20;99.90
5280;DHT22;2663;53.588;10.010;2023-03-14T08:01:59;11.10;99.90
5280;DHT22;2663;53.588;10.010;2023-03-14T08:04:26;11.20;99.90
5280;DHT22;2663;53.588;10.010;2023-03-14T08:06:53;11.20;99.90
5280;DHT22;2663;53.588;10.010;2023-03-14T08:09:20;11.20;99.90
5280;DHT22;2663;53.588;10.010;2023-03-14T08:11:47;11.20;99.90
5280;DHT22;2663;53.588;10.010;2023-03-14T08:14:14;11.30;99.90
5280;DHT22;2663;53.588;10.010;2023-03-14T08:16:40;11.30;99.90
5280;DHT22;2663;53.588;10.010;2023-03-14T08:19:07;11.40;99.90
5280;DHT22;2663;53.588;10.010;2023-03-14T08:21:34;11.40;99.90
5280;DHT22;2663;53.588;10.010;2023-03-14T08:24:00;11.50;99.90
5280;DHT22;2663;53.588;10.010;2023-03-14T08:26:27;11.50;99.90
5280;DHT22;2663;53.588;10.010;2023-03-14T08:28:54;11.50;99.90
5280;DHT22;2663;53.588;10.010;2023-03-14T08:31:20;11.40;99.90
5280;DHT22;2663;53.588;10.010;2023-03-14T08:33:47;11.40;99.90
5280;DHT22;2663;53.588;10.010;2023-03-14T08:36:14;11.40;99.90
5280;DHT22;2663;53.588;10.010;2023-03-14T08:38:41;11.50;99.90
5280;DHT22;2663;53.588;10.010;2023-03-14T08:41:09;11.50;99.90
5280;DHT22;2663;53.588;10.010;2023-03-14T08:43:36;11.50;99.90
5280;DHT22;2663;53.588;10.010;2023-03-14T08:46:03;11.40;99.90
5280;DHT22;2663;53.588;10.010;2023-03-14T08:48:30;11.50;99.90
5280;DHT22;2663;53.588;10.010;2023-03-14T08:51:03;11.50;99.90
5280;DHT22;2663;53.588;10.010;2023-03-14T08:53:30;11.50;99.90
5280;DHT22;2663;53.588;10.010;2023-03-14T08:55:57;11.50;99.90
5280;DHT22;2663;53.588;10.010;2023-03-14T08:58:23;11.50;99.90
5280;DHT22;2663;53.588;10.010;2023-03-14T09:00:50;11.50;99.90
5280;DHT22;2663;53.588;10.010;2023-03-14T09:03:17;11.50;99.90
5280;DHT22;2663;53.588;10.010;2023-03-14T09:05:44;11.40;99.90
5280;DHT22;2663;53.588;10.010;2023-03-14T09:08:11;11.40;99.90
5280;DHT22;2663;53.588;10.010;2023-03-14T09:10:37;11.50;99.90
5280;DHT22;2663;53.588;10.010;2023-03-14T09:13:05;11.40;99.90
5280;DHT22;2663;53.588;10.010;2023-03-14T09:15:31;11.40;99.90
5280;DHT22;2663;53.588;10.010;2023-03-14T09:17:59;11.40;99.90
5280;DHT22;2663;53.588;10.010;2023-03-14T09:20:25;11.30;99.90
5280;DHT22;2663;53.588;10.010;2023-03-14T09:22:53;11.30;99.90
5280;DHT22;2663;53.588;10.010;2023-03-14T09:25:20;11.30;99.90
5280;DHT22;2663;53.588;10.010;2023-03-14T09:27:47;11.30;99.90
5280;DHT22;2663;53.588;10.010;2023-03-14T09:30:13;11.40;99.90
5280;DHT22;2663;53.588;10.010;2023-03-14T09:32:40;11.50;99.90
5280;DHT22;2663;53.588;10.010;2023-03-14T09:35:07;11.40;99.90
5280;DHT22;2663;53.588;10.010;2023-03-14T09:37:34;11.30;99.90
5280;DHT22;2663;53.588;10.010;2023-03-14T09:40:01;11.30;99.90
5280;DHT22;2663;53.588;10.010;2023-03-14T09:42:37;11.40;99.90
5280;DHT22;2663;53.588;10.010;2023-03-14T09:45:10;11.50;99.90
5280;DHT22;2663;53.588;10.010;2023-03-14T09:47:38;11.60;99.90
5280;DHT22;2663;53.588;10.010;2023-03-14T09:50:22;11.60;99.90
5280;DHT22;2663;53.588;10.010;2023-03-14T09:53:00;11.30;99.90
5280;DHT22;2663;53.588;10.010;2023-03-14T09:55:28;11.30;99.90
5280;DHT22;2663;53.588;10.010;2023-03-14T09:57:59;11.00;99.90
5280;DHT22;2663;53.588;10.010;2023-03-14T10:00:28;10.20;99.90
5280;DHT22;2663;53.588;10.010;2023-03-14T10:05:41;9.40;99.90
5280;DHT22;2663;53.588;10.010;2023-03-14T10:08:11;9.30;99.90
5280;DHT22;2663;53.588;10.010;2023-03-14T10:10:39;9.40;99.90
5280;DHT22;2663;53.588;10.010;2023-03-14T10:15:48;9.20;99.90
5280;DHT22;2663;53.588;10.010;2023-03-14T10:18:15;9.10;99.90
5280;DHT22;2663;53.588;10.010;2023-03-14T10:20:44;8.90;99.90
5280;DHT22;2663;53.588;10.010;2023-03-14T10:25:41;9.10;99.90
5280;DHT22;2663;53.588;10.010;2023-03-14T10:28:28;8.90;99.90
5280;DHT22;2663;53.588;10.010;2023-03-14T10:30:56;8.70;99.90
5280;DHT22;2663;53.588;10.010;2023-03-14T10:33:32;8.30;99.90
5280;DHT22;2663;53.588;10.010;2023-03-14T10:36:01;8.00;99.90
5280;DHT22;2663;53.588;10.010;2023-03-14T10:38:30;7.50;99.90
5280;DHT22;2663;53.588;10.010;2023-03-14T10:40:58;7.30;99.90
5280;DHT22;2663;53.588;10.010;2023-03-14T10:43:30;7.20;99.90
5280;DHT22;2663;53.588;10.010;2023-03-14T10:46:00;7.10;99.90
5280;DHT22;2663;53.588;10.010;2023-03-14T10:48:37;7.10;99.90
5280;DHT22;2663;53.588;10.010;2023-03-14T10:53:47;6.80;99.90
5280;DHT22;2663;53.588;10.010;2023-03-14T10:56:19;6.70;99.90
5280;DHT22;2663;53.588;10.010;2023-03-14T10:58:48;6.50;99.90
5280;DHT22;2663;53.588;10.010;2023-03-14T11:04:13;6.60;99.90
5280;DHT22;2663;53.588;10.010;2023-03-14T11:07:32;6.40;99.90
5280;DHT22;2663;53.588;10.010;2023-03-14T11:09:50;6.60;99.90
5280;DHT22;2663;53.588;10.010;2023-03-14T11:15:05;6.60;99.90
5280;DHT22;2663;53.588;10.010;2023-03-14T11:20:32;6.20;99.90
5280;DHT22;2663;53.588;10.010;2023-03-14T11:23:09;6.20;99.90
5280;DHT22;2663;53.588;10.010;2023-03-14T11:28:22;6.00;99.90
5280;DHT22;2663;53.588;10.010;2023-03-14T11:30:54;6.10;99.90
5280;DHT22;2663;53.588;10.010;2023-03-14T11:33:28;6.00;99.90
5280;DHT22;2663;53.588;10.010;2023-03-14T11:36:08;6.10;99.90
5280;DHT22;2663;53.588;10.010;2023-03-14T11:38:50;7.50;99.90
5280;DHT22;2663;53.588;10.010;2023-03-14T11:41:34;6.20;99.90
5280;DHT22;2663;53.588;10.010;2023-03-14T11:44:10;6.20;99.90
5280;DHT22;2663;53.588;10.010;2023-03-14T11:46:44;6.30;99.90
5280;DHT22;2663;53.588;10.010;2023-03-14T11:55:30;6.60;99.90
5280;DHT22;2663;53.588;10.010;2023-03-14T11:58:09;8.60;99.90
5280;DHT22;2663;53.588;10.010;2023-03-14T12:00:38;6.50;99.90
5280;DHT22;2663;53.588;10.010;2023-03-14T12:06:31;6.90;99.90
5280;DHT22;2663;53.588;10.010;2023-03-14T12:09:04;6.90;99.90
5280;DHT22;2663;53.588;10.010;2023-03-14T12:11:45;7.20;99.90
5280;DHT22;2663;53.588;10.010;2023-03-14T12:14:34;7.00;99.90
5280;DHT22;2663;53.588;10.010;2023-03-14T12:17:42;7.00;99.90
5280;DHT22;2663;53.588;10.010;2023-03-14T12:20:22;7.00;99.90
5280;DHT22;2663;53.588;10.010;2023-03-14T12:23:01;6.90;99.90
5280;DHT22;2663;53.588;10.010;2023-03-14T12:25:31;7.00;99.90
5280;DHT22;2663;53.588;10.010;2023-03-14T12:28:18;6.80;99.90
5280;DHT22;2663;53.588;10.010;2023-03-14T12:30:45;6.90;99.90
5280;DHT22;2663;53.588;10.010;2023-03-14T12:33:20;6.90;99.90
5280;DHT22;2663;53.588;10.010;2023-03-14T12:35:50;6.90;99.90
5280;DHT22;2663;53.588;10.010;2023-03-14T12:38:25;7.00;99.90
5280;DHT22;2663;53.588;10.010;2023-03-14T12:43:43;7.00;99.90
5280;DHT22;2663;53.588;10.010;2023-03-14T12:46:30;7.10;99.90
5280;DHT22;2663;53.588;10.010;2023-03-14T12:49:07;7.10;99.90
5280;DHT22;2663;53.588;10.010;2023-03-14T12:51:43;7.10;99.90
5280;DHT22;2663;53.588;10.010;2023-03-14T12:54:43;7.10;99.90
5280;DHT22;2663;53.588;10.010;2023-03-14T13:00:21;6.90;99.90
5280;DHT22;2663;53.588;10.010;2023-03-14T13:02:49;7.00;99.90
5280;DHT22;2663;53.588;10.010;2023-03-14T13:05:19;7.20;99.90
5280;DHT22;2663;53.588;10.010;2023-03-14T13:10:22;7.10;99.90
5280;DHT22;2663;53.588;10.010;2023-03-14T13:13:00;7.00;99.90
5280;DHT22;2663;53.588;10.010;2023-03-14T13:15:33;7.10;99.90
5280;DHT22;2663;53.588;10.010;2023-03-14T13:18:16;7.20;99.90
5280;DHT22;2663;53.588;10.010;2023-03-14T13:20:51;7.10;99.90
5280;DHT22;2663;53.588;10.010;2023-03-14T13:23:24;7.10;99.90
5280;DHT22;2663;53.588;10.010;2023-03-14T13:25:52;7.10;99.90
5280;DHT22;2663;53.588;10.010;2023-03-14T13:28:19;7.30;99.90
5280;DHT22;2663;53.588;10.010;2023-03-14T13:30:48;7.20;99.90
5280;DHT22;2663;53.588;10.010;2023-03-14T13:33:19;7.30;99.90
5280;DHT22;2663;53.588;10.010;2023-03-14T13:35:59;7.30;99.90
5280;DHT22;2663;53.588;10.010;2023-03-14T13:38:31;7.10;99.90
5280;DHT22;2663;53.588;10.010;2023-03-14T13:41:00;7.10;99.90
5280;DHT22;2663;53.588;10.010;2023-03-14T13:43:32;5.70;99.80
5280;DHT22;2663;53.588;10.010;2023-03-14T13:46:04;7.00;99.10
5280;DHT22;2663;53.588;10.010;2023-03-14T13:48:35;6.90;98.50
5280;DHT22;2663;53.588;10.010;2023-03-14T13:51:06;6.90;97.70
5280;DHT22;2663;53.588;10.010;2023-03-14T13:53:46;7.10;97.30
5280;DHT22;2663;53.588;10.010;2023-03-14T13:56:13;6.90;97.90
5280;DHT22;2663;53.588;10.010;2023-03-14T13:58:41;6.90;97.80
5280;DHT22;2663;53.588;10.010;2023-03-14T14:01:18;7.00;98.80
5280;DHT22;2663;53.588;10.010;2023-03-14T14:03:48;7.10;98.80
5280;DHT22;2663;53.588;10.010;2023-03-14T14:06:38;7.10;99.30
5280;DHT22;2663;53.588;10.010;2023-03-14T14:09:15;7.10;99.90
5280;DHT22;2663;53.588;10.010;2023-03-14T14:17:18;7.20;99.90
5280;DHT22;2663;53.588;10.010;2023-03-14T14:19:47;6.90;99.90
5280;DHT22;2663;53.588;10.010;2023-03-14T14:22:14;7.00;99.90
5280;DHT22;2663;53.588;10.010;2023-03-14T14:24:41;7.20;99.90
5280;DHT22;2663;53.588;10.010;2023-03-14T14:29:39;7.20;99.10
5280;DHT22;2663;53.588;10.010;2023-03-14T14:32:12;7.10;98.50
5280;DHT22;2663;53.588;10.010;2023-03-14T14:34:41;7.40;98.60
5280;DHT22;2663;53.588;10.010;2023-03-14T14:37:29;9.00;99.10
5280;DHT22;2663;53.588;10.010;2023-03-14T14:40:20;7.20;98.60
5280;DHT22;2663;53.588;10.010;2023-03-14T14:42:48;7.20;99.00
5280;DHT22;2663;53.588;10.010;2023-03-14T14:45:23;6.90;98.80
5280;DHT22;2663;53.588;10.010;2023-03-14T14:47:57;7.00;99.00
5280;DHT22;2663;53.588;10.010;2023-03-14T14:50:33;7.10;98.30
5280;DHT22;2663;53.588;10.010;2023-03-14T14:53:02;7.10;98.40
5280;DHT22;2663;53.588;10.010;2023-03-14T14:55:32;7.20;98.40
5280;DHT22;2663;53.588;10.010;2023-03-14T14:58:16;7.40;97.80
5280;DHT22;2663;53.588;10.010;2023-03-14T15:03:19;7.60;96.80
5280;DHT22;2663;53.588;10.010;2023-03-14T15:05:46;7.60;96.40
5280;DHT22;2663;53.588;10.010;2023-03-14T15:08:13;7.30;96.40
5280;DHT22;2663;53.588;10.010;2023-03-14T15:10:40;7.10;97.50
5280;DHT22;2663;53.588;10.010;2023-03-14T15:13:07;7.00;97.70
5280;DHT22;2663;53.588;10.010;2023-03-14T15:15:33;7.10;97.90
5280;DHT22;2663;53.588;10.010;2023-03-14T15:18:01;7.00;98.20
5280;DHT22;2663;53.588;10.010;2023-03-14T15:20:27;6.90;98.20
5280;DHT22;2663;53.588;10.010;2023-03-14T15:22:54;6.90;98.20
5280;DHT22;2663;53.588;10.010;2023-03-14T15:25:21;7.00;97.50
5280;DHT22;2663;53.588;10.010;2023-03-14T15:28:24;7.00;98.10
5280;DHT22;2663;53.588;10.010;2023-03-14T15:30:54;7.10;98.30
5280;DHT22;2663;53.588;10.010;2023-03-14T15:33:21;7.30;98.90
5280;DHT22;2663;53.588;10.010;2023-03-14T15:35:48;7.30;99.30
5280;DHT22;2663;53.588;10.010;2023-03-14T15:38:18;7.10;99.90
5280;DHT22;2663;53.588;10.010;2023-03-14T15:40:50;7.10;99.90
5280;DHT22;2663;53.588;10.010;2023-03-14T15:43:17;7.00;99.90
5280;DHT22;2663;53.588;10.010;2023-03-14T15:45:44;6.90;98.90
5280;DHT22;2663;53.588;10.010;2023-03-14T15:48:17;6.80;98.30
5280;DHT22;2663;53.588;10.010;2023-03-14T15:50:44;6.80;98.20
5280;DHT22;2663;53.588;10.010;2023-03-14T15:53:11;6.70;98.80
5280;DHT22;2663;53.588;10.010;2023-03-14T15:55:38;6.80;98.60
5280;DHT22;2663;53.588;10.010;2023-03-14T15:58:05;6.80;98.30
5280;DHT22;2663;53.588;10.010;2023-03-14T16:00:32;6.70;97.40
5280;DHT22;2663;53.588;10.010;2023-03-14T16:02:58;6.70;97.50
5280;DHT22;2663;53.588;10.010;2023-03-14T16:05:25;6.80;97.20
5280;DHT22;2663;53.588;10.010;2023-03-14T16:07:52;6.70;97.50
5280;DHT22;2663;53.588;10.010;2023-03-14T16:10:18;6.80;97.60
5280;DHT22;2663;53.588;10.010;2023-03-14T16:12:45;6.80;97.90
5280;DHT22;2663;53.588;10.010;2023-03-14T16:15:12;6.60;98.30
5280;DHT22;2663;53.588;10.010;2023-03-14T16:17:38;6.60;98.90
5280;DHT22;2663;53.588;10.010;2023-03-14T16:20:06;6.50;99.40
5280;DHT22;2663;53.588;10.010;2023-03-14T16:22:34;6.70;99.10
5280;DHT22;2663;53.588;10.010;2023-03-14T16:25:06;6.60;98.90
5280;DHT22;2663;53.588;10.010;2023-03-14T16:27:33;6.60;98.90
5280;DHT22;2663;53.588;10.010;2023-03-14T16:29:59;6.50;99.10
5280;DHT22;2663;53.588;10.010;2023-03-14T16:32:26;6.50;99.00
5280;DHT22;2663;53.588;10.010;2023-03-14T16:34:53;6.40;99.00
5280;DHT22;2663;53.588;10.010;2023-03-14T16:37:22;6.30;99.20
5280;DHT22;2663;53.588;10.010;2023-03-14T16:39:49;6.30;99.80
5280;DHT22;2663;53.588;10.010;2023-03-14T16:42:36;6.30;99.90
5280;DHT22;2663;53.588;10.010;2023-03-14T16:45:16;6.20;99.70
5280;DHT22;2663;53.588;10.010;2023-03-14T16:47:42;6.20;99.80
5280;DHT22;2663;53.588;10.010;2023-03-14T16:50:09;6.10;98.70
5280;DHT22;2663;53.588;10.010;2023-03-14T16:52:36;8.40;99.50
5280;DHT22;2663;53.588;10.010;2023-03-14T16:55:03;6.20;99.20
5280;DHT22;2663;53.588;10.010;2023-03-14T16:57:30;6.20;99.00
5280;DHT22;2663;53.588;10.010;2023-03-14T16:59:57;6.10;99.00
5280;DHT22;2663;53.588;10.010;2023-03-14T17:02:24;6.10;98.90
5280;DHT22;2663;53.588;10.010;2023-03-14T17:04:50;6.10;99.20
5280;DHT22;2663;53.588;10.010;2023-03-14T17:07:17;6.20;99.20